sim
Sign-in with your pilot id or email,
or register
Callsign
Passwort

Schedule Details

Flight Number: OEO6730
Departure: Munich Airport (EDDM) at 13:50
Arrival: San Francisco International Airport (KSFO) at 03:25

Weather Information
Getting current METAR information for EDDM 222120Z VRB02KT CAVOK 14/14 Q1010 NOSIG
Getting current METAR information for KSFO 222056Z 30018KT 10SM FEW015 21/13 A3005 RMK AO2 SLP175 T02110128 56007

Schedule Frequency

Route Map